Time;durP1;ratioP1;P1;durP2;ratioP2;P2;SDS_P1;SDS_P2;PMS_P1;PMS_P2;Temp;Humidity;BMP_temperature;BMP_pressure;BME280_temperature;BME280_humidity;BME280_pressure;Samples;Min_cycle;Max_cycle;Signal;HPM_P1;HPM_P2
2023/05/23 00:00:27;;;;;;;6.15;3.53;;;17.60;99.90;;;17.75;100.00;101071.19;5148773;28;20440;-80
2023/05/23 00:03:00;;;;;;;6.50;3.90;;;17.60;99.90;;;17.73;100.00;101072.03;5161352;28;20050;-80
2023/05/23 00:05:33;;;;;;;6.97;4.28;;;17.60;99.90;;;17.70;100.00;101071.97;5148463;28;20085;-81
2023/05/23 00:08:05;;;;;;;7.57;4.43;;;17.60;99.90;;;17.63;100.00;101076.31;5149683;28;20046;-81
2023/05/23 00:10:37;;;;;;;7.63;4.28;;;17.50;99.90;;;17.56;100.00;101075.34;5144930;28;20051;-80
2023/05/23 00:13:11;;;;;;;10.30;5.35;;;17.50;99.90;;;17.52;100.00;101077.94;5168794;28;20050;-80
2023/05/23 00:15:43;;;;;;;8.35;4.68;;;17.40;99.90;;;17.49;100.00;101089.34;5138017;28;20097;-80
2023/05/23 00:18:16;;;;;;;7.45;4.30;;;17.40;99.90;;;17.45;100.00;101091.91;5167416;28;20043;-81
2023/05/23 00:20:50;;;;;;;9.05;4.45;;;17.30;99.90;;;17.43;100.00;101089.28;5141758;28;20066;-81
2023/05/23 00:23:24;;;;;;;8.65;4.07;;;17.30;99.90;;;17.38;100.00;101088.31;5159649;28;20047;-80
2023/05/23 00:25:57;;;;;;;7.85;4.40;;;17.30;99.90;;;17.34;100.00;101086.50;5162429;28;20051;-81
2023/05/23 00:28:29;;;;;;;9.32;4.60;;;17.20;99.90;;;17.32;100.00;101090.88;5168500;28;20050;-80
2023/05/23 00:31:01;;;;;;;8.40;4.43;;;17.20;99.90;;;17.31;100.00;101095.28;5171303;28;20050;-80
2023/05/23 00:33:33;;;;;;;8.30;4.38;;;17.10;99.90;;;17.32;100.00;101090.88;5157355;28;20069;-79
2023/05/23 00:36:07;;;;;;;6.93;3.85;;;17.10;99.90;;;17.28;100.00;101083.84;5177496;28;20060;-80
2023/05/23 00:38:40;;;;;;;7.28;3.95;;;17.10;99.90;;;17.24;100.00;101082.00;5154522;28;20043;-80
2023/05/23 00:41:12;;;;;;;7.65;4.38;;;17.10;99.90;;;17.23;100.00;101082.88;5161135;28;20407;-79
2023/05/23 00:43:44;;;;;;;7.47;4.05;;;17.10;99.90;;;17.19;100.00;101083.69;5177831;28;20447;-82
2023/05/23 00:46:16;;;;;;;9.23;4.28;;;17.00;99.90;;;17.18;100.00;101089.84;5169312;28;20519;-79
2023/05/23 00:48:48;;;;;;;8.30;4.18;;;17.00;99.90;;;17.12;100.00;101092.38;5168673;28;20507;-80
2023/05/23 00:51:22;;;;;;;8.23;4.35;;;16.90;99.90;;;17.07;100.00;101101.09;5147575;28;20055;-80
2023/05/23 00:53:54;;;;;;;7.40;4.35;;;16.90;99.90;;;17.01;100.00;101100.16;5174207;28;20039;-82
2023/05/23 00:56:27;;;;;;;8.23;4.25;;;16.80;99.90;;;16.98;100.00;101108.00;5161567;28;20141;-81
2023/05/23 00:59:00;;;;;;;6.95;3.80;;;16.80;99.90;;;16.95;100.00;101100.06;5152300;28;20047;-81
2023/05/23 01:01:35;;;;;;;8.38;4.40;;;16.80;99.90;;;16.91;100.00;101104.41;5161835;28;20098;-80
2023/05/23 01:04:08;;;;;;;7.38;4.22;;;16.70;99.90;;;16.88;100.00;101099.09;5175247;28;20141;-81
2023/05/23 01:06:45;;;;;;;8.23;3.90;;;16.70;99.90;;;16.86;100.00;101095.56;5152924;28;20042;-81
2023/05/23 01:09:19;;;;;;;6.97;4.15;;;16.70;99.90;;;16.84;100.00;101099.03;5162780;28;20043;-81
2023/05/23 01:12:07;;;;;;;7.97;4.43;;;16.70;99.90;;;16.80;100.00;101098.09;5162324;28;20073;-81
2023/05/23 01:15:00;;;;;;;8.63;4.20;;;16.70;99.90;;;16.77;100.00;101105.97;5158515;28;20098;-80
2023/05/23 01:17:41;;;;;;;7.38;3.92;;;16.70;99.90;;;16.75;100.00;101097.16;5169358;28;20038;-80
2023/05/23 01:20:20;;;;;;;7.70;3.97;;;16.60;99.90;;;16.75;100.00;101102.41;5164239;28;20106;-80
2023/05/23 01:23:36;;;;;;;6.38;3.67;;;16.60;99.90;;;16.79;100.00;101109.50;5150773;28;20046;-80
2023/05/23 01:26:25;;;;;;;9.40;4.82;;;16.60;99.90;;;16.80;100.00;101112.16;5155647;28;20062;-80
2023/05/23 01:29:08;;;;;;;11.27;4.95;;;16.60;99.90;;;16.81;100.00;101106.00;5156174;28;20054;-81
2023/05/23 01:31:44;;;;;;;8.15;4.28;;;16.60;99.90;;;16.84;100.00;101099.94;5155782;28;20081;-80
2023/05/23 01:34:19;;;;;;;9.77;5.07;;;16.70;99.90;;;16.87;100.00;101102.59;5157846;28;20488;-80
2023/05/23 01:36:55;;;;;;;10.15;4.78;;;16.60;99.90;;;16.88;100.00;101107.00;5172703;28;20303;-81
2023/05/23 01:39:27;;;;;;;10.50;4.93;;;16.70;99.90;;;16.87;100.00;101110.50;5137554;28;20130;-80
2023/05/23 01:41:59;;;;;;;8.02;3.78;;;16.70;99.90;;;16.86;100.00;101100.81;5161233;28;20047;-81
2023/05/23 01:44:34;;;;;;;9.13;4.53;;;16.70;99.90;;;16.88;100.00;101108.75;5145407;28;20047;-81
2023/05/23 01:47:08;;;;;;;7.63;4.20;;;16.70;99.90;;;16.89;100.00;101099.97;5153438;28;20050;-80
2023/05/23 01:49:43;;;;;;;6.30;3.97;;;16.70;99.90;;;16.90;100.00;101104.41;5146741;28;20535;-81
2023/05/23 01:52:16;;;;;;;8.10;4.32;;;16.70;99.90;;;16.89;100.00;101103.53;5163052;28;20046;-81
2023/05/23 01:54:49;;;;;;;7.28;3.88;;;16.70;99.90;;;16.90;100.00;101102.66;5173618;28;20049;-81
2023/05/23 01:57:22;;;;;;;7.97;3.78;;;16.70;99.90;;;16.90;100.00;101101.78;5142668;28;20035;-80
2023/05/23 01:59:55;;;;;;;6.82;3.70;;;16.70;99.90;;;16.89;100.00;101115.78;5166261;28;20062;-80
2023/05/23 02:02:28;;;;;;;9.43;4.05;;;16.70;99.90;;;16.89;100.00;101105.22;5165471;28;20110;-81
2023/05/23 02:05:01;;;;;;;6.40;3.60;;;16.80;99.90;;;16.89;100.00;101108.78;5143897;28;20050;-81
2023/05/23 02:07:33;;;;;;;7.47;3.90;;;16.80;99.90;;;16.89;100.00;101123.66;5145854;28;20042;-80
2023/05/23 02:10:08;;;;;;;8.88;4.22;;;16.80;99.90;;;16.89;100.00;101123.66;5153721;28;20527;-80
2023/05/23 02:12:40;;;;;;;8.98;5.00;;;16.80;99.90;;;16.88;100.00;101120.16;5150419;28;20049;-81
2023/05/23 02:15:16;;;;;;;7.05;4.03;;;16.70;99.90;;;16.86;100.00;101127.16;5169454;28;20046;-81
2023/05/23 02:17:48;;;;;;;7.80;4.20;;;16.70;99.90;;;16.85;100.00;101129.78;5171115;28;20034;-80
2023/05/23 02:20:21;;;;;;;5.72;3.40;;;16.70;99.90;;;16.83;100.00;101132.38;5159492;28;20046;-80
2023/05/23 02:22:53;;;;;;;4.53;3.05;;;16.70;99.90;;;16.82;100.00;101130.59;5148414;28;20050;-81
2023/05/23 02:25:25;;;;;;;4.70;2.55;;;16.70;99.90;;;16.79;100.00;101138.47;5148023;28;20055;-80
2023/05/23 02:27:57;;;;;;;4.38;2.67;;;16.60;99.90;;;16.80;100.00;101145.50;5147835;28;20514;-81
2023/05/23 02:30:31;;;;;;;4.22;2.85;;;16.60;99.90;;;16.78;100.00;101141.97;5154938;28;20097;-81
2023/05/23 02:33:06;;;;;;;4.80;2.72;;;16.60;99.90;;;16.77;100.00;101148.97;5154835;28;20101;-80
2023/05/23 02:35:39;;;;;;;4.93;2.83;;;16.70;99.90;;;16.79;100.00;101151.63;5156849;28;20043;-79
2023/05/23 02:38:11;;;;;;;3.13;2.28;;;16.60;99.90;;;16.80;100.00;101149.00;5162848;28;20047;-81
2023/05/23 02:40:46;;;;;;;;;;;16.70;99.90;;;16.80;100.00;101153.38;5154887;28;20110;-79
2023/05/23 02:43:18;;;;;;;4.00;2.53;;;16.70;99.90;;;16.79;100.00;101155.13;5151349;28;19941;-81
2023/05/23 02:45:51;;;;;;;4.20;2.80;;;16.70;99.90;;;16.79;100.00;101156.88;5151608;28;20046;-81
2023/05/23 02:48:23;;;;;;;3.78;2.25;;;16.60;99.90;;;16.79;100.00;101149.88;5144058;28;20035;-80
2023/05/23 02:50:56;;;;;;;5.22;2.67;;;16.70;99.90;;;16.81;100.00;101149.88;5148003;28;20051;-81
2023/05/23 02:53:28;;;;;;;3.95;2.22;;;16.70;99.90;;;16.79;100.00;101147.25;5164015;28;20056;-81
2023/05/23 02:56:00;;;;;;;4.72;2.70;;;16.60;99.90;;;16.78;100.00;101153.38;5146075;28;20086;-80
2023/05/23 02:58:34;;;;;;;4.25;2.95;;;16.60;99.90;;;16.77;100.00;101153.38;5144097;28;20050;-79
2023/05/23 03:01:08;;;;;;;3.95;2.63;;;16.60;99.90;;;16.74;100.00;101154.19;5166716;28;20061;-81
2023/05/23 03:03:40;;;;;;;4.18;2.85;;;16.60;99.90;;;16.73;100.00;101146.25;5145899;28;20105;-80
2023/05/23 03:06:13;;;;;;;5.03;2.45;;;16.60;99.90;;;16.73;100.00;101146.25;5173601;28;20070;-80
2023/05/23 03:08:46;;;;;;;4.07;2.58;;;16.60;99.90;;;16.75;100.00;101142.78;5150939;28;20051;-81
2023/05/23 03:11:18;;;;;;;4.13;2.50;;;16.60;99.90;;;16.71;100.00;101148.00;5166171;28;20042;-81
2023/05/23 03:13:50;;;;;;;4.50;2.58;;;16.60;99.90;;;16.72;100.00;101149.75;5149133;28;20049;-81
2023/05/23 03:16:23;;;;;;;4.22;2.30;;;16.60;99.90;;;16.71;100.00;101142.72;5152449;28;20070;-80
2023/05/23 03:18:56;;;;;;;3.92;2.10;;;16.60;99.90;;;16.72;100.00;101150.66;5136118;28;20134;-80
2023/05/23 03:21:28;;;;;;;4.25;2.35;;;16.60;99.90;;;16.71;100.00;101148.88;5145350;28;20050;-80
2023/05/23 03:24:00;;;;;;;3.45;2.30;;;16.50;99.90;;;16.69;100.00;101161.09;5168320;28;20053;-81
2023/05/23 03:26:32;;;;;;;4.93;2.65;;;16.60;99.90;;;16.69;100.00;101154.94;5161592;28;20050;-80
2023/05/23 03:29:05;;;;;;;4.60;2.40;;;16.50;99.90;;;16.66;100.00;101162.78;5162148;28;20066;-80
2023/05/23 03:31:38;;;;;;;4.07;2.33;;;16.50;99.90;;;16.65;100.00;101166.28;5180592;28;20058;-81
2023/05/23 03:34:11;;;;;;;5.47;2.92;;;16.50;99.90;;;16.64;100.00;101172.41;5165996;28;20057;-80
2023/05/23 03:36:43;;;;;;;4.68;2.38;;;16.50;99.90;;;16.61;100.00;101175.88;5155411;28;20050;-79
2023/05/23 03:39:15;;;;;;;4.40;2.38;;;16.50;99.90;;;16.63;100.00;101171.53;5160871;28;20042;-80
2023/05/23 03:41:47;;;;;;;4.45;2.67;;;16.50;99.90;;;16.63;100.00;101170.66;5169344;28;20089;-80
2023/05/23 03:44:20;;;;;;;5.47;2.85;;;16.50;99.90;;;16.63;100.00;101175.91;5152396;28;20050;-80
2023/05/23 03:46:53;;;;;;;6.13;2.97;;;16.50;99.90;;;16.61;100.00;101173.25;5151404;28;20505;-80
2023/05/23 03:49:26;;;;;;;5.18;2.75;;;16.50;99.90;;;16.63;100.00;101165.41;5160530;28;20062;-81
2023/05/23 03:51:58;;;;;;;6.05;3.30;;;16.50;99.90;;;16.58;100.00;101173.19;5146922;28;20070;-79
2023/05/23 03:54:31;;;;;;;6.70;3.17;;;16.40;99.90;;;16.55;100.00;101174.03;5143599;28;20050;-81
2023/05/23 03:57:04;;;;;;;5.03;2.95;;;16.40;99.90;;;16.53;100.00;101169.59;5167393;28;20052;-81
2023/05/23 03:59:36;;;;;;;5.82;2.95;;;16.40;99.90;;;16.49;100.00;101176.53;5140945;28;20572;-81
2023/05/23 04:02:12;;;;;;;7.20;3.80;;;16.30;99.90;;;16.46;100.00;101183.53;5153312;28;20239;-80
2023/05/23 04:04:45;;;;;;;7.05;3.70;;;16.30;99.90;;;16.41;100.00;101182.56;5151955;28;20039;-80
2023/05/23 04:07:18;;;;;;;7.22;3.97;;;16.30;99.90;;;16.35;100.00;101180.69;5162488;28;20068;-81
2023/05/23 04:09:50;;;;;;;7.40;4.22;;;16.20;99.90;;;16.31;100.00;101172.75;5153917;28;20050;-81
2023/05/23 04:12:23;;;;;;;9.70;3.85;;;16.20;99.90;;;16.31;100.00;101178.91;5149579;28;20440;-81
2023/05/23 04:14:56;;;;;;;6.32;3.40;;;16.20;99.90;;;16.31;100.00;101185.91;5149567;28;20073;-81
2023/05/23 04:17:30;;;;;;;6.88;3.38;;;16.20;99.90;;;16.29;100.00;101186.72;5151906;28;20051;-82
2023/05/23 04:20:04;;;;;;;6.47;3.20;;;16.10;99.90;;;16.28;100.00;101198.13;5150504;28;20140;-81
2023/05/23 04:22:37;;;;;;;7.43;3.60;;;16.10;99.90;;;16.25;100.00;101184.03;5141736;28;20046;-81
2023/05/23 04:25:11;;;;;;;7.88;4.40;;;16.10;99.90;;;16.21;100.00;101197.97;5138931;28;20127;-80
2023/05/23 04:27:50;;;;;;;6.43;3.85;;;16.10;99.90;;;16.17;100.00;101197.06;5151941;28;20083;-81
2023/05/23 04:30:22;;;;;;;7.13;3.35;;;16.00;99.90;;;16.14;100.00;101196.09;5156225;28;20106;-82
2023/05/23 04:32:58;;;;;;;7.25;4.15;;;16.10;99.90;;;16.13;100.00;101196.97;5163409;28;20075;-80
2023/05/23 04:35:33;;;;;;;6.57;3.55;;;16.00;99.90;;;16.13;100.00;101202.22;5151588;28;20477;-81
2023/05/23 04:38:05;;;;;;;5.25;3.25;;;16.00;99.90;;;16.15;100.00;101209.28;5172196;28;20057;-80
2023/05/23 04:40:38;;;;;;;8.70;3.42;;;16.00;99.90;;;16.17;100.00;101201.41;5158557;28;20062;-81
2023/05/23 04:43:29;;;;;;;9.45;4.18;;;16.00;99.90;;;16.17;100.00;101202.31;5171029;28;20101;-80
2023/05/23 04:46:15;;;;;;;7.63;3.60;;;16.00;99.90;;;16.16;100.00;101207.53;5149498;28;20097;-81
2023/05/23 04:48:50;;;;;;;6.75;3.33;;;16.00;99.90;;;16.14;100.00;101204.88;5142744;28;20138;-81
2023/05/23 04:51:23;;;;;;;7.68;4.05;;;16.00;99.90;;;16.14;100.00;101204.88;5170729;28;20134;-79
2023/05/23 04:54:02;;;;;;;7.63;3.35;;;16.00;99.90;;;16.14;100.00;101206.63;5147251;28;20046;-80
2023/05/23 04:56:34;;;;;;;6.10;3.50;;;16.00;99.90;;;16.14;100.00;101207.50;5155514;28;20055;-80
2023/05/23 04:59:10;;;;;;;6.72;3.05;;;16.00;99.90;;;16.12;100.00;101206.59;5145791;28;20046;-80
2023/05/23 05:01:42;;;;;;;5.78;2.92;;;16.00;99.90;;;16.14;100.00;101210.13;5140748;28;20046;-80
2023/05/23 05:04:16;;;;;;;7.82;3.00;;;16.00;99.90;;;16.16;100.00;101205.78;5165618;28;20516;-80
2023/05/23 05:06:51;;;;;;;6.65;3.55;;;16.00;99.90;;;16.18;100.00;101213.72;5150684;28;20077;-80
2023/05/23 05:09:24;;;;;;;5.47;3.00;;;16.00;99.90;;;16.18;100.00;101219.00;5146483;28;20127;-80
2023/05/23 05:11:57;;;;;;;6.28;3.50;;;16.00;99.90;;;16.18;100.00;101219.00;5153401;28;20050;-80
2023/05/23 05:14:29;;;;;;;8.55;3.13;;;16.00;99.90;;;16.20;100.00;101222.53;5154887;28;20046;-81
2023/05/23 05:17:01;;;;;;;7.65;3.10;;;16.00;99.90;;;16.17;100.00;101220.72;5149404;28;20046;-81
2023/05/23 05:19:41;;;;;;;7.53;3.55;;;16.00;99.90;;;16.15;100.00;101224.16;5152548;28;20538;-81
2023/05/23 05:22:14;;;;;;;7.20;3.63;;;16.00;99.90;;;16.12;100.00;101226.75;5151568;28;20568;-80
2023/05/23 05:24:46;;;;;;;5.65;3.05;;;16.00;99.90;;;16.10;100.00;101224.06;5146844;28;20647;-81
2023/05/23 05:27:18;;;;;;;6.22;3.33;;;16.00;99.90;;;16.09;100.00;101229.31;5149947;28;20050;-81
2023/05/23 05:29:50;;;;;;;6.60;3.40;;;16.00;99.90;;;16.07;100.00;101231.91;5142662;28;20047;-80
2023/05/23 05:32:23;;;;;;;6.68;3.28;;;16.00;99.90;;;16.07;100.00;101236.28;5164707;28;20528;-80
2023/05/23 05:34:58;;;;;;;7.53;3.60;;;15.90;99.90;;;16.07;100.00;101241.56;5138752;28;20050;-81
2023/05/23 05:37:30;;;;;;;8.32;3.60;;;16.00;99.90;;;16.04;100.00;101239.75;5150569;28;20039;-79
2023/05/23 05:40:06;;;;;;;7.93;3.28;;;15.90;99.90;;;16.04;100.00;101241.47;5147511;28;20047;-79
2023/05/23 05:42:40;;;;;;;7.78;3.75;;;15.90;99.90;;;16.07;100.00;101236.28;5147453;28;20043;-80
2023/05/23 05:45:12;;;;;;;7.82;3.70;;;16.00;99.90;;;16.10;100.00;101237.22;5164635;28;20520;-81
2023/05/23 05:47:46;;;;;;;6.85;3.42;;;15.90;99.90;;;16.10;100.00;101234.59;5152111;28;20046;-83
2023/05/23 05:50:20;;;;;;;8.63;3.95;;;16.00;99.90;;;16.06;100.00;101235.41;5156092;28;20050;-83
2023/05/23 05:52:52;;;;;;;10.23;4.45;;;15.90;99.90;;;16.09;100.00;101235.47;5157606;28;20053;-84
2023/05/23 05:55:24;;;;;;;11.55;4.85;;;16.00;99.90;;;16.09;100.00;101242.47;5179250;28;20109;-84
2023/05/23 05:57:59;;;;;;;9.05;4.00;;;16.00;99.90;;;16.09;100.00;101248.59;5153321;28;20489;-85
2023/05/23 06:00:40;;;;;;;9.05;4.28;;;16.00;99.90;;;16.10;100.00;101246.84;5173930;28;20126;-84
2023/05/23 06:03:12;;;;;;;6.53;3.72;;;15.90;99.90;;;16.08;100.00;101251.22;5166808;28;20058;-83
2023/05/23 06:05:54;;;;;;;7.88;4.25;;;16.00;99.90;;;16.07;100.00;101263.47;5148999;28;20130;-85
2023/05/23 06:08:26;;;;;;;8.50;3.90;;;15.90;99.90;;;16.07;100.00;101257.34;5161016;28;20039;-85
2023/05/23 06:10:58;;;;;;;6.97;3.33;;;15.90;99.90;;;16.10;100.00;101254.75;5151991;28;20057;-84
2023/05/23 06:13:32;;;;;;;8.18;3.60;;;15.90;99.90;;;16.10;100.00;101265.28;5151609;28;20034;-83
2023/05/23 06:16:05;;;;;;;7.45;4.22;;;15.90;99.90;;;16.05;100.00;101254.69;5151766;28;20057;-83
2023/05/23 06:18:37;;;;;;;7.95;3.90;;;15.90;99.90;;;16.03;100.00;101261.63;5140137;28;20043;-86
2023/05/23 06:21:11;;;;;;;8.63;3.63;;;15.90;99.90;;;16.06;100.00;101268.72;5164157;28;20082;-84
2023/05/23 06:23:43;;;;;;;6.93;3.53;;;15.90;99.90;;;16.05;100.00;101267.84;5155660;28;20046;-84
2023/05/23 06:26:15;;;;;;;10.02;4.72;;;15.90;99.90;;;16.04;100.00;101268.69;5144353;28;20053;-84
2023/05/23 06:28:47;;;;;;;8.23;4.00;;;15.90;99.90;;;16.05;100.00;101265.19;5153173;28;20443;-84
2023/05/23 06:31:19;;;;;;;10.23;3.97;;;15.90;99.90;;;16.03;100.00;101266.88;5158910;28;20572;-85
2023/05/23 06:33:53;;;;;;;10.30;4.32;;;15.90;99.90;;;16.00;100.00;101266.84;5132481;28;20464;-85
2023/05/23 06:36:26;;;;;;;9.63;4.53;;;15.90;99.90;;;15.97;100.00;101266.75;5131505;28;20064;-84
2023/05/23 06:39:00;;;;;;;8.70;4.13;;;15.80;99.90;;;15.93;100.00;101264.94;5147131;28;20122;-84
2023/05/23 06:41:32;;;;;;;8.18;3.88;;;15.80;99.90;;;15.92;100.00;101269.31;5177170;22;20044;-60
2023/05/23 06:44:04;;;;;;;10.63;4.82;;;15.80;99.90;;;15.94;100.00;101278.13;5159746;28;20415;-60
2023/05/23 06:46:36;;;;;;;9.05;3.83;;;15.80;99.90;;;15.97;100.00;101266.75;5150626;28;20254;-60
2023/05/23 06:49:08;;;;;;;7.65;3.85;;;15.80;99.90;;;15.95;100.00;101273.75;5158000;28;20714;-59
2023/05/23 06:51:42;;;;;;;10.10;4.43;;;15.80;99.90;;;15.99;100.00;101281.75;5146092;28;20049;-59
2023/05/23 06:54:14;;;;;;;10.02;4.38;;;15.90;99.90;;;16.05;100.00;101280.09;5145371;28;20133;-59
2023/05/23 06:56:47;;;;;;;9.05;4.65;;;15.90;99.90;;;16.06;100.00;101284.50;5145960;28;20541;-59
2023/05/23 06:59:20;;;;;;;10.98;4.40;;;15.90;99.90;;;16.01;100.00;101279.13;5145061;28;20050;-60
2023/05/23 07:01:52;;;;;;;9.10;4.45;;;15.90;99.90;;;16.00;100.00;101287.88;5145771;28;20049;-59
2023/05/23 07:04:24;;;;;;;9.10;4.88;;;15.90;99.90;;;15.96;100.00;101284.28;5162669;28;20149;-59
2023/05/23 07:06:58;;;;;;;9.30;4.63;;;15.90;99.90;;;15.94;100.00;101293.91;5145718;28;20570;-60
2023/05/23 07:09:30;;;;;;;9.23;5.10;;;15.80;99.90;;;15.90;100.00;101292.03;5160656;28;20035;-59
2023/05/23 07:12:12;;;;;;;9.98;4.97;;;15.80;99.90;;;15.88;100.00;101293.75;5145258;28;20050;-60
2023/05/23 07:14:47;;;;;;;8.43;4.57;;;15.80;99.90;;;15.89;100.00;101295.53;5145507;28;20120;-59
2023/05/23 07:17:20;;;;;;;9.02;4.68;;;15.80;99.90;;;15.88;100.00;101296.41;5145006;28;20112;-60
2023/05/23 07:19:53;;;;;;;10.18;4.63;;;15.80;99.90;;;15.90;100.00;101296.41;5145048;28;20046;-59
2023/05/23 07:22:27;;;;;;;9.63;4.90;;;15.80;99.90;;;15.89;100.00;101299.91;5145224;28;20042;-59
2023/05/23 07:24:59;;;;;;;9.95;4.82;;;15.80;99.90;;;15.88;100.00;101306.91;5145470;28;20078;-59
2023/05/23 07:27:35;;;;;;;10.88;4.93;;;15.80;99.90;;;15.86;100.00;101302.50;5144867;28;20138;-60
2023/05/23 07:30:09;;;;;;;9.45;4.75;;;15.80;99.90;;;15.88;100.00;101309.53;5144442;28;20053;-58
2023/05/23 07:32:42;;;;;;;7.90;4.35;;;15.80;99.90;;;15.91;100.00;101311.34;5145288;28;20079;-60
2023/05/23 07:35:22;;;;;;;11.18;4.93;;;15.80;99.90;;;15.92;100.00;101306.13;5144746;28;20050;-60
2023/05/23 07:37:56;;;;;;;10.32;4.55;;;15.80;99.90;;;15.98;100.00;101311.53;5144818;28;20093;-59
2023/05/23 07:40:29;;;;;;;8.13;4.30;;;15.80;99.90;;;16.00;100.00;101301.91;5144300;28;20050;-60
2023/05/23 07:43:01;;;;;;;8.57;4.75;;;15.90;99.90;;;16.01;100.00;101306.31;5145049;28;20054;-59
2023/05/23 07:45:33;;;;;;;9.02;5.15;;;15.90;99.90;;;16.03;100.00;101311.59;5144628;28;20152;-59
2023/05/23 07:48:06;;;;;;;10.95;5.43;;;15.90;99.90;;;16.06;100.00;101310.78;5144748;28;20081;-58
2023/05/23 07:50:39;;;;;;;8.57;5.00;;;15.90;99.90;;;16.09;100.00;101313.47;5160687;28;20161;-60
2023/05/23 07:53:14;;;;;;;8.63;5.22;;;15.90;99.90;;;16.10;100.00;101315.22;5144622;28;20082;-60
2023/05/23 07:55:46;;;;;;;10.18;5.38;;;15.90;99.90;;;16.12;100.00;101316.19;5145075;28;20050;-60
2023/05/23 07:58:19;;;;;;;9.93;5.35;;;16.00;99.90;;;16.12;100.00;101324.06;5144358;28;20042;-60
2023/05/23 08:00:53;;;;;;;11.60;6.85;;;16.00;99.90;;;16.12;100.00;101317.06;5144652;28;20046;-60
2023/05/23 08:03:48;;;;;;;10.05;6.03;;;16.00;99.90;;;16.13;100.00;101321.47;5152636;28;20147;-59
2023/05/23 08:06:28;;;;;;;11.35;6.40;;;16.00;99.90;;;16.14;100.00;101323.22;5144495;28;20145;-59
2023/05/23 08:09:06;;;;;;;10.20;6.15;;;16.00;99.90;;;16.17;100.00;101322.41;5144423;28;20061;-61
2023/05/23 08:11:40;;;;;;;8.10;5.10;;;16.00;99.90;;;16.24;100.00;101332.22;5145228;28;20044;-61
2023/05/23 08:14:12;;;;;;;10.10;5.93;;;16.10;99.90;;;16.28;100.00;101326.13;5144405;28;20392;-60
2023/05/23 08:16:54;;;;;;;11.18;5.63;;;16.10;99.90;;;16.29;100.00;101343.69;5144830;28;20046;-60
2023/05/23 08:19:29;;;;;;;8.48;4.65;;;16.10;99.90;;;16.32;100.00;101346.41;5143524;28;20534;-61
2023/05/23 08:22:03;;;;;;;12.52;5.22;;;16.20;99.90;;;16.36;100.00;101350.84;5144868;28;20043;-60
2023/05/23 08:24:37;;;;;;;11.02;5.40;;;16.20;99.90;;;16.36;100.00;101350.84;5143881;28;20483;-59
2023/05/23 08:27:10;;;;;;;7.47;4.00;;;16.20;99.90;;;16.38;100.00;101345.63;5144225;28;20434;-59
2023/05/23 08:29:43;;;;;;;10.38;4.80;;;16.20;99.90;;;16.35;100.00;101349.06;5143828;28;20038;-60
2023/05/23 08:32:15;;;;;;;9.95;4.85;;;16.20;99.90;;;16.34;100.00;101356.94;5144211;28;20049;-58
2023/05/23 08:34:49;;;;;;;9.95;5.00;;;16.20;99.90;;;16.37;100.00;101354.41;5144430;28;20074;-60
2023/05/23 08:37:21;;;;;;;10.52;5.07;;;16.20;99.90;;;16.35;100.00;101359.59;5144112;28;20051;-60
2023/05/23 08:39:55;;;;;;;7.63;4.20;;;16.20;99.90;;;16.34;100.00;101357.84;5144195;28;20038;-59
2023/05/23 08:42:50;;;;;;;10.85;4.53;;;16.20;99.90;;;16.42;100.00;101363.25;5141762;28;20051;-61
2023/05/23 08:45:23;;;;;;;8.73;4.28;;;16.30;99.90;;;16.49;100.00;101358.13;5159464;28;20104;-59
2023/05/23 08:47:56;;;;;;;9.27;4.32;;;16.30;99.90;;;16.52;100.00;101358.19;5144284;28;20137;-59
2023/05/23 08:50:30;;;;;;;11.38;4.93;;;16.40;99.90;;;16.51;100.00;101366.06;5146743;28;20054;-59
2023/05/23 08:53:07;;;;;;;8.10;4.10;;;16.40;99.90;;;16.49;100.00;101368.66;5148810;28;20070;-58
2023/05/23 08:55:42;;;;;;;7.93;4.22;;;16.40;99.90;;;16.50;100.00;101370.44;5140257;28;20042;-60
2023/05/23 08:58:16;;;;;;;8.52;4.63;;;16.40;99.90;;;16.50;100.00;101372.19;5147737;28;20081;-59
2023/05/23 09:00:56;;;;;;;8.35;4.13;;;16.30;99.90;;;16.52;100.00;101381.00;5147691;28;20046;-59
2023/05/23 09:03:29;;;;;;;7.72;4.32;;;16.40;99.90;;;16.53;100.00;101375.75;5147787;28;20046;-59
2023/05/23 09:06:10;;;;;;;8.80;4.30;;;16.40;99.90;;;16.55;100.00;101392.47;5148409;28;20054;-60
2023/05/23 09:08:45;;;;;;;8.23;4.15;;;16.40;99.90;;;16.51;100.00;101382.75;5147679;28;20514;-59
2023/05/23 09:11:20;;;;;;;7.65;4.13;;;16.40;99.90;;;16.44;100.00;101386.13;5147668;28;20507;-59
2023/05/23 09:13:53;;;;;;;7.93;3.60;;;16.30;99.90;;;16.33;100.00;101379.75;5147986;28;20046;-60
2023/05/23 09:16:33;;;;;;;9.48;4.60;;;16.30;99.90;;;16.23;100.00;101381.28;5147341;28;20053;-58
2023/05/23 09:19:14;;;;;;;8.88;4.57;;;16.20;99.90;;;16.16;100.00;101389.00;5147553;28;20038;-60
2023/05/23 09:21:50;;;;;;;12.52;5.13;;;16.10;99.90;;;16.10;100.00;101394.13;5141046;28;20380;-60
2023/05/23 09:24:38;;;;;;;9.65;5.03;;;16.00;99.90;;;16.06;100.00;101400.19;5147333;28;20065;-59
2023/05/23 09:27:14;;;;;;;10.68;5.18;;;16.00;99.90;;;16.08;100.00;101401.13;5147528;28;20072;-59
2023/05/23 09:29:47;;;;;;;11.02;5.88;;;16.00;99.90;;;16.07;100.00;101400.22;5147045;28;20050;-58
2023/05/23 09:32:21;;;;;;;11.32;5.78;;;15.90;99.90;;;16.06;100.00;101398.47;5147230;28;20145;-59
2023/05/23 09:34:58;;;;;;;11.57;5.45;;;15.90;99.90;;;16.02;100.00;101404.50;5147622;28;20074;-62
2023/05/23 09:37:32;;;;;;;12.00;5.25;;;15.90;99.90;;;16.00;100.00;101398.31;5147141;28;20081;-59
2023/05/23 09:40:09;;;;;;;13.90;5.30;;;15.90;99.90;;;16.00;100.00;101407.09;5164460;28;20046;-61
2023/05/23 09:42:46;;;;;;;11.32;5.50;;;15.90;99.90;;;16.05;100.00;101396.69;5146971;28;20402;-60
2023/05/23 09:45:18;;;;;;;11.05;6.18;;;15.90;99.90;;;16.09;100.00;101397.63;5164184;28;20530;-59
2023/05/23 09:47:51;;;;;;;12.18;5.75;;;16.00;99.90;;;16.16;100.00;101404.78;5147518;28;20537;-61
2023/05/23 09:50:30;;;;;;;10.45;5.22;;;16.00;99.90;;;16.27;100.00;101403.28;5146531;28;20046;-59
2023/05/23 09:53:02;;;;;;;12.68;6.80;;;16.10;99.90;;;16.31;100.00;101402.50;5147245;28;20050;-60
2023/05/23 09:55:34;;;;;;;14.68;7.55;;;16.10;99.90;;;16.37;100.00;101401.75;5164315;28;20050;-60
2023/05/23 09:58:09;;;;;;;17.17;8.45;;;16.20;99.90;;;16.40;100.00;101405.31;5164791;28;20038;-60
2023/05/23 10:00:41;;;;;;;20.65;10.07;;;16.20;99.90;;;16.43;100.00;101408.03;5162903;28;20044;-59
2023/05/23 10:03:16;;;;;;;18.65;8.95;;;16.30;99.90;;;16.47;100.00;101401.94;5164278;28;20153;-58
2023/05/23 10:05:51;;;;;;;21.90;11.30;;;16.30;99.90;;;16.50;100.00;101412.56;5157224;28;20051;-60
2023/05/23 10:08:28;;;;;;;20.20;11.20;;;16.30;99.90;;;16.55;100.00;101410.88;5163977;28;20047;-59
2023/05/23 10:12:09;;;;;;;19.17;10.55;;;16.40;99.90;;;16.61;100.00;101420.66;5164193;28;20070;-59
2023/05/23 10:14:51;;;;;;;27.38;13.82;;;16.40;99.90;;;16.57;100.00;101420.56;5163598;28;20042;-60
2023/05/23 10:17:32;;;;;;;27.48;14.38;;;16.40;99.90;;;16.52;100.00;101421.38;5163954;28;20125;-59
2023/05/23 10:20:11;;;;;;;26.95;13.45;;;16.40;99.90;;;16.46;100.00;101428.25;5163742;28;20053;-59
2023/05/23 10:22:43;;;;;;;24.80;12.63;;;16.30;99.90;;;16.34;100.00;101435.88;5164106;28;20649;-60
2023/05/23 10:25:16;;;;;;;24.08;11.82;;;16.20;99.90;;;16.24;100.00;101432.16;5163581;28;20107;-59
2023/05/23 10:27:49;;;;;;;23.83;12.15;;;16.10;99.90;;;16.20;100.00;101443.47;5156814;28;20054;-59
2023/05/23 10:30:36;;;;;;;21.80;11.63;;;16.10;99.90;;;16.12;100.00;101442.41;5162624;28;20050;-59
2023/05/23 10:33:10;;;;;;;22.70;12.05;;;16.10;99.90;;;16.08;100.00;101444.06;5165714;28;20057;-60
2023/05/23 10:35:50;;;;;;;21.83;11.75;;;16.00;99.90;;;16.12;100.00;101445.06;5164922;28;20122;-60